sensor_id;sensor_type;location;lat;lon;timestamp;pressure;altitude;pressure_sealevel;temperature;humidity
73341;BME280;61578;52.002;5.468;2023-05-09T00:00:29;101740.81;;;15.32;91.35
73341;BME280;61578;52.002;5.468;2023-05-09T00:01:12;101727.84;;;15.26;91.59
73341;BME280;61578;52.002;5.468;2023-05-09T00:01:43;101736.41;;;15.31;91.49
73341;BME280;61578;52.002;5.468;2023-05-09T00:02:14;101743.47;;;15.32;91.64
73341;BME280;61578;52.002;5.468;2023-05-09T00:02:45;101740.69;;;15.34;91.54
73341;BME280;61578;52.002;5.468;2023-05-09T00:03:17;101739.84;;;15.33;92.01
73341;BME280;61578;52.002;5.468;2023-05-09T00:03:47;101735.66;;;15.29;91.75
73341;BME280;61578;52.002;5.468;2023-05-09T00:04:20;101740.81;;;15.32;91.71
73341;BME280;61578;52.002;5.468;2023-05-09T00:04:51;101737.06;;;15.35;91.70
73341;BME280;61578;52.002;5.468;2023-05-09T00:05:22;101733.53;;;15.34;91.55
73341;BME280;61578;52.002;5.468;2023-05-09T00:05:53;101736.31;;;15.33;91.30
73341;BME280;61578;52.002;5.468;2023-05-09T00:06:26;101736.09;;;15.36;91.96
73341;BME280;61578;52.002;5.468;2023-05-09T00:06:57;101732.66;;;15.34;91.55
73341;BME280;61578;52.002;5.468;2023-05-09T00:07:28;101737.91;;;15.35;91.56
73341;BME280;61578;52.002;5.468;2023-05-09T00:07:59;101733.53;;;15.34;91.21
73341;BME280;61578;52.002;5.468;2023-05-09T00:08:30;101737.06;;;15.35;91.62
73341;BME280;61578;52.002;5.468;2023-05-09T00:09:00;101730.75;;;15.36;91.43
73341;BME280;61578;52.002;5.468;2023-05-09T00:09:31;101737.91;;;15.35;91.80
73341;BME280;61578;52.002;5.468;2023-05-09T00:10:02;101735.09;;;15.37;91.92
73341;BME280;61578;52.002;5.468;2023-05-09T00:10:33;101719.69;;;15.28;91.71
73341;BME280;61578;52.002;5.468;2023-05-09T00:11:04;101732.31;;;15.38;91.40
73341;BME280;61578;52.002;5.468;2023-05-09T00:11:35;101735.97;;;15.37;91.75
73341;BME280;61578;52.002;5.468;2023-05-09T00:12:09;101717.78;;;15.30;91.49
73341;BME280;61578;52.002;5.468;2023-05-09T00:12:41;101716.81;;;15.31;91.86
73341;BME280;61578;52.002;5.468;2023-05-09T00:13:12;101729.03;;;15.35;91.62
73341;BME280;61578;52.002;5.468;2023-05-09T00:13:43;101723.59;;;15.36;92.25
73341;BME280;61578;52.002;5.468;2023-05-09T00:14:14;101720.03;;;15.36;92.39
73341;BME280;61578;52.002;5.468;2023-05-09T00:14:45;101724.31;;;15.38;92.52
73341;BME280;61578;52.002;5.468;2023-05-09T00:15:17;101722.59;;;15.37;91.79
73341;BME280;61578;52.002;5.468;2023-05-09T00:15:49;101722.72;;;15.36;91.96
73341;BME280;61578;52.002;5.468;2023-05-09T00:16:23;101721.72;;;15.37;91.75
73341;BME280;61578;52.002;5.468;2023-05-09T00:16:53;101727.22;;;15.35;91.53
73341;BME280;61578;52.002;5.468;2023-05-09T00:17:28;101729.75;;;15.37;91.84
73341;BME280;61578;52.002;5.468;2023-05-09T00:18:00;101722.59;;;15.37;91.42
73341;BME280;61578;52.002;5.468;2023-05-09T00:18:35;101726.25;;;15.36;91.96
73341;BME280;61578;52.002;5.468;2023-05-09T00:19:09;101730.75;;;15.36;91.50
73341;BME280;61578;52.002;5.468;2023-05-09T00:19:40;101721.97;;;15.34;91.58
73341;BME280;61578;52.002;5.468;2023-05-09T00:20:13;101718.44;;;15.33;91.59
73341;BME280;61578;52.002;5.468;2023-05-09T00:20:44;101718.34;;;15.35;91.55
73341;BME280;61578;52.002;5.468;2023-05-09T00:21:18;101714.78;;;15.34;91.91
73341;BME280;61578;52.002;5.468;2023-05-09T00:21:49;101721.97;;;15.34;91.71
73341;BME280;61578;52.002;5.468;2023-05-09T00:22:20;101714.69;;;15.36;92.26
73341;BME280;61578;52.002;5.468;2023-05-09T00:22:50;101711.88;;;15.37;91.96
73341;BME280;61578;52.002;5.468;2023-05-09T00:23:21;101716.50;;;15.35;91.89
73341;BME280;61578;52.002;5.468;2023-05-09T00:23:52;101706.00;;;15.32;91.54
73341;BME280;61578;52.002;5.468;2023-05-09T00:24:23;101715.66;;;15.35;91.89
73341;BME280;61578;52.002;5.468;2023-05-09T00:24:56;101718.22;;;15.36;91.79
73341;BME280;61578;52.002;5.468;2023-05-09T00:25:27;101719.06;;;15.37;91.86
73341;BME280;61578;52.002;5.468;2023-05-09T00:25:58;101714.69;;;15.36;91.89
73341;BME280;61578;52.002;5.468;2023-05-09T00:26:28;101716.28;;;15.38;92.15
73341;BME280;61578;52.002;5.468;2023-05-09T00:26:59;101713.69;;;15.37;91.58
73341;BME280;61578;52.002;5.468;2023-05-09T00:27:30;101697.22;;;15.30;92.21
73341;BME280;61578;52.002;5.468;2023-05-09T00:28:01;101718.09;;;15.38;92.28
73341;BME280;61578;52.002;5.468;2023-05-09T00:28:32;101714.47;;;15.39;91.96
73341;BME280;61578;52.002;5.468;2023-05-09T00:29:03;101710.19;;;15.36;92.07
73341;BME280;61578;52.002;5.468;2023-05-09T00:29:33;101707.53;;;15.36;92.07
73341;BME280;61578;52.002;5.468;2023-05-09T00:30:05;101712.88;;;15.36;92.12
73341;BME280;61578;52.002;5.468;2023-05-09T00:30:36;101717.38;;;15.36;92.13
73341;BME280;61578;52.002;5.468;2023-05-09T00:31:13;101718.34;;;15.35;92.01
73341;BME280;61578;52.002;5.468;2023-05-09T00:31:44;101717.38;;;15.36;92.07
73341;BME280;61578;52.002;5.468;2023-05-09T00:32:15;101717.56;;;15.33;91.83
73341;BME280;61578;52.002;5.468;2023-05-09T00:32:45;101716.63;;;15.34;91.56
73341;BME280;61578;52.002;5.468;2023-05-09T00:33:16;101716.81;;;15.31;91.60
73341;BME280;61578;52.002;5.468;2023-05-09T00:33:47;101717.56;;;15.33;91.91
73341;BME280;61578;52.002;5.468;2023-05-09T00:34:17;101715.66;;;15.35;92.47
73341;BME280;61578;52.002;5.468;2023-05-09T00:34:49;101717.38;;;15.36;91.88
73341;BME280;61578;52.002;5.468;2023-05-09T00:35:20;101720.75;;;15.38;92.28
73341;BME280;61578;52.002;5.468;2023-05-09T00:35:50;101712.63;;;15.39;92.05
73341;BME280;61578;52.002;5.468;2023-05-09T00:36:21;101715.22;;;15.41;91.88
73341;BME280;61578;52.002;5.468;2023-05-09T00:36:53;101718.75;;;15.41;92.25
73341;BME280;61578;52.002;5.468;2023-05-09T00:37:23;101709.84;;;15.41;92.36
73341;BME280;61578;52.002;5.468;2023-05-09T00:37:54;101708.91;;;15.42;91.98
73341;BME280;61578;52.002;5.468;2023-05-09T00:38:25;101695.09;;;15.35;91.94
73341;BME280;61578;52.002;5.468;2023-05-09T00:38:55;101708.91;;;15.42;91.83
73341;BME280;61578;52.002;5.468;2023-05-09T00:39:26;101708.91;;;15.42;91.65
73341;BME280;61578;52.002;5.468;2023-05-09T00:39:57;101711.56;;;15.42;92.13
73341;BME280;61578;52.002;5.468;2023-05-09T00:40:27;101711.56;;;15.42;91.74
73341;BME280;61578;52.002;5.468;2023-05-09T00:41:01;101709.75;;;15.42;91.97
73341;BME280;61578;52.002;5.468;2023-05-09T00:41:32;101709.75;;;15.42;92.51
73341;BME280;61578;52.002;5.468;2023-05-09T00:42:03;101711.38;;;15.45;92.85
73341;BME280;61578;52.002;5.468;2023-05-09T00:42:35;101705.25;;;15.43;92.51
73341;BME280;61578;52.002;5.468;2023-05-09T00:43:09;101715.75;;;15.46;92.64
73341;BME280;61578;52.002;5.468;2023-05-09T00:43:40;101713.09;;;15.46;92.25
73341;BME280;61578;52.002;5.468;2023-05-09T00:44:10;101709.53;;;15.45;92.12
73341;BME280;61578;52.002;5.468;2023-05-09T00:44:44;101704.91;;;15.47;92.38
73341;BME280;61578;52.002;5.468;2023-05-09T00:45:14;101716.63;;;15.46;92.25
73341;BME280;61578;52.002;5.468;2023-05-09T00:45:48;101713.19;;;15.44;92.64
73341;BME280;61578;52.002;5.468;2023-05-09T00:46:20;101707.94;;;15.43;92.72
73341;BME280;61578;52.002;5.468;2023-05-09T00:46:51;101711.13;;;15.48;92.13
73341;BME280;61578;52.002;5.468;2023-05-09T00:47:22;101705.78;;;15.48;92.22
73341;BME280;61578;52.002;5.468;2023-05-09T00:47:54;101699.81;;;15.44;92.54
73341;BME280;61578;52.002;5.468;2023-05-09T00:48:25;101705.47;;;15.53;92.16
73341;BME280;61578;52.002;5.468;2023-05-09T00:48:56;101701.94;;;15.52;92.04
73341;BME280;61578;52.002;5.468;2023-05-09T00:49:27;101693.16;;;15.50;92.37
73341;BME280;61578;52.002;5.468;2023-05-09T00:49:58;101703.66;;;15.53;92.00
73341;BME280;61578;52.002;5.468;2023-05-09T00:50:29;101707.09;;;15.55;92.23
73341;BME280;61578;52.002;5.468;2023-05-09T00:51:00;101698.84;;;15.58;92.05
73341;BME280;61578;52.002;5.468;2023-05-09T00:51:32;101699.84;;;15.57;92.30
73341;BME280;61578;52.002;5.468;2023-05-09T00:52:04;101703.34;;;15.58;92.07
73341;BME280;61578;52.002;5.468;2023-05-09T00:52:34;101698.84;;;15.58;91.94
73341;BME280;61578;52.002;5.468;2023-05-09T00:53:06;101703.34;;;15.58;91.66
73341;BME280;61578;52.002;5.468;2023-05-09T00:53:37;101693.16;;;15.50;91.64
73341;BME280;61578;52.002;5.468;2023-05-09T00:54:08;101695.72;;;15.52;91.60
73341;BME280;61578;52.002;5.468;2023-05-09T00:54:39;101700.03;;;15.54;91.74
73341;BME280;61578;52.002;5.468;2023-05-09T00:55:12;101703.56;;;15.55;91.61
73341;BME280;61578;52.002;5.468;2023-05-09T00:55:45;101700.78;;;15.56;92.22
73341;BME280;61578;52.002;5.468;2023-05-09T00:56:16;101706.00;;;15.58;92.79
73341;BME280;61578;52.002;5.468;2023-05-09T00:56:47;101704.19;;;15.58;92.64
73341;BME280;61578;52.002;5.468;2023-05-09T00:57:18;101702.38;;;15.59;92.42
73341;BME280;61578;52.002;5.468;2023-05-09T00:57:48;101697.97;;;15.58;92.18
73341;BME280;61578;52.002;5.468;2023-05-09T00:58:20;101705.19;;;15.57;92.39
73341;BME280;61578;52.002;5.468;2023-05-09T00:58:51;101692.94;;;15.53;92.26
73341;BME280;61578;52.002;5.468;2023-05-09T00:59:22;101701.75;;;15.55;92.39
73341;BME280;61578;52.002;5.468;2023-05-09T00:59:54;101696.47;;;15.54;92.35
73341;BME280;61578;52.002;5.468;2023-05-09T01:00:24;101700.91;;;15.55;92.81
73341;BME280;61578;52.002;5.468;2023-05-09T01:00:55;101699.16;;;15.54;92.28
73341;BME280;61578;52.002;5.468;2023-05-09T01:01:26;101703.66;;;15.53;92.03
73341;BME280;61578;52.002;5.468;2023-05-09T01:01:57;101693.25;;;15.48;92.07
73341;BME280;61578;52.002;5.468;2023-05-09T01:02:27;101694.75;;;15.53;91.58
73341;BME280;61578;52.002;5.468;2023-05-09T01:02:58;101703.66;;;15.53;92.13
73341;BME280;61578;52.002;5.468;2023-05-09T01:03:30;101699.16;;;15.54;92.16
73341;BME280;61578;52.002;5.468;2023-05-09T01:04:01;101698.41;;;15.52;91.90
73341;BME280;61578;52.002;5.468;2023-05-09T01:04:35;101705.38;;;15.54;92.38
73341;BME280;61578;52.002;5.468;2023-05-09T01:05:10;101700.03;;;15.54;92.25
73341;BME280;61578;52.002;5.468;2023-05-09T01:06:04;101696.28;;;15.57;92.54
73341;BME280;61578;52.002;5.468;2023-05-09T01:11:44;101674.97;;;15.55;92.39
73341;BME280;61578;52.002;5.468;2023-05-09T01:15:53;101689.34;;;15.54;92.05
73341;BME280;61578;52.002;5.468;2023-05-09T01:16:59;101681.91;;;15.58;92.11
73341;BME280;61578;52.002;5.468;2023-05-09T01:18:46;101675.59;;;15.59;91.60
73341;BME280;61578;52.002;5.468;2023-05-09T01:19:56;101672.06;;;15.58;91.94
73341;BME280;61578;52.002;5.468;2023-05-09T01:20:39;101671.44;;;15.55;91.64
73341;BME280;61578;52.002;5.468;2023-05-09T01:21:23;101680.22;;;15.57;92.04
73341;BME280;61578;52.002;5.468;2023-05-09T01:22:02;101667.03;;;15.54;92.32
73341;BME280;61578;52.002;5.468;2023-05-09T01:22:41;101667.91;;;15.54;92.35
73341;BME280;61578;52.002;5.468;2023-05-09T01:27:21;101660.06;;;15.51;92.24
73341;BME280;61578;52.002;5.468;2023-05-09T01:28:29;101655.78;;;15.48;92.42
73341;BME280;61578;52.002;5.468;2023-05-09T01:29:44;101661.25;;;15.47;92.24
73341;BME280;61578;52.002;5.468;2023-05-09T01:30:18;101652.50;;;15.45;92.12
73341;BME280;61578;52.002;5.468;2023-05-09T01:30:52;101650.66;;;15.45;92.40
73341;BME280;61578;52.002;5.468;2023-05-09T01:31:26;101648.94;;;15.44;92.32
73341;BME280;61578;52.002;5.468;2023-05-09T01:32:02;101651.63;;;15.44;92.73
73341;BME280;61578;52.002;5.468;2023-05-09T01:32:39;101645.41;;;15.44;92.28
73341;BME280;61578;52.002;5.468;2023-05-09T01:33:16;101641.03;;;15.43;92.34
73341;BME280;61578;52.002;5.468;2023-05-09T01:33:54;101643.06;;;15.39;92.54
73341;BME280;61578;52.002;5.468;2023-05-09T01:34:27;101632.06;;;15.31;92.49
73341;BME280;61578;52.002;5.468;2023-05-09T01:35:03;101641.34;;;15.38;92.19
73341;BME280;61578;52.002;5.468;2023-05-09T01:35:36;101644.25;;;15.35;92.29
73341;BME280;61578;52.002;5.468;2023-05-09T01:36:16;101646.09;;;15.35;92.62
73341;BME280;61578;52.002;5.468;2023-05-09T01:36:50;101643.41;;;15.35;92.61
73341;BME280;61578;52.002;5.468;2023-05-09T01:37:31;101642.31;;;15.37;92.48
73341;BME280;61578;52.002;5.468;2023-05-09T01:38:10;101637.94;;;15.36;92.65
73341;BME280;61578;52.002;5.468;2023-05-09T01:38:50;101640.63;;;15.36;92.83
73341;BME280;61578;52.002;5.468;2023-05-09T01:39:25;101641.59;;;15.35;92.58
73341;BME280;61578;52.002;5.468;2023-05-09T01:40:06;101629.59;;;15.28;92.45
73341;BME280;61578;52.002;5.468;2023-05-09T01:40:42;101641.59;;;15.35;92.60
73341;BME280;61578;52.002;5.468;2023-05-09T01:41:18;101650.56;;;15.34;92.80
73341;BME280;61578;52.002;5.468;2023-05-09T01:41:55;101639.13;;;15.32;92.43
73341;BME280;61578;52.002;5.468;2023-05-09T01:42:43;101639.22;;;15.31;92.60
73341;BME280;61578;52.002;5.468;2023-05-09T01:43:21;101647.34;;;15.29;92.33
73341;BME280;61578;52.002;5.468;2023-05-09T01:43:58;101651.84;;;15.29;92.79
73341;BME280;61578;52.002;5.468;2023-05-09T01:44:38;101650.03;;;15.29;92.76
73341;BME280;61578;52.002;5.468;2023-05-09T01:45:13;101637.09;;;15.23;92.85
73341;BME280;61578;52.002;5.468;2023-05-09T01:45:47;101650.03;;;15.29;92.62
73341;BME280;61578;52.002;5.468;2023-05-09T01:46:21;101643.94;;;15.27;92.75
73341;BME280;61578;52.002;5.468;2023-05-09T01:46:55;101651.00;;;15.28;93.29
73341;BME280;61578;52.002;5.468;2023-05-09T01:47:28;101642.00;;;15.29;93.38
73341;BME280;61578;52.002;5.468;2023-05-09T01:47:59;101642.97;;;15.28;92.92
73341;BME280;61578;52.002;5.468;2023-05-09T01:48:35;101640.41;;;15.27;92.96
73341;BME280;61578;52.002;5.468;2023-05-09T01:49:07;101645.75;;;15.27;93.17
73341;BME280;61578;52.002;5.468;2023-05-09T01:49:40;101650.28;;;15.26;92.64
73341;BME280;61578;52.002;5.468;2023-05-09T01:50:17;101636.25;;;15.23;92.87
73341;BME280;61578;52.002;5.468;2023-05-09T01:50:50;101637.97;;;15.24;93.05
73341;BME280;61578;52.002;5.468;2023-05-09T01:51:36;101640.63;;;15.24;92.94
73341;BME280;61578;52.002;5.468;2023-05-09T01:52:13;101639.78;;;15.23;92.98
73341;BME280;61578;52.002;5.468;2023-05-09T01:52:48;101637.22;;;15.22;93.10
73341;BME280;61578;52.002;5.468;2023-05-09T01:53:26;101631.09;;;15.20;93.15
73341;BME280;61578;52.002;5.468;2023-05-09T01:54:00;101633.78;;;15.20;93.11
73341;BME280;61578;52.002;5.468;2023-05-09T01:54:34;101627.47;;;15.21;92.60
73341;BME280;61578;52.002;5.468;2023-05-09T01:55:11;101632.91;;;15.19;92.99
73341;BME280;61578;52.002;5.468;2023-05-09T01:55:46;101632.81;;;15.21;93.29
73341;BME280;61578;52.002;5.468;2023-05-09T01:56:21;101628.53;;;15.18;93.21
73341;BME280;61578;52.002;5.468;2023-05-09T01:56:54;101627.66;;;15.18;93.05
73341;BME280;61578;52.002;5.468;2023-05-09T01:57:28;101628.53;;;15.18;93.24
73341;BME280;61578;52.002;5.468;2023-05-09T01:58:03;101616.75;;;15.08;93.18
73341;BME280;61578;52.002;5.468;2023-05-09T01:58:37;101623.28;;;15.17;93.27
73341;BME280;61578;52.002;5.468;2023-05-09T01:59:12;101633.16;;;15.16;92.81
73341;BME280;61578;52.002;5.468;2023-05-09T01:59:47;101628.88;;;15.14;93.11
73341;BME280;61578;52.002;5.468;2023-05-09T02:00:19;101615.81;;;15.09;93.24
73341;BME280;61578;52.002;5.468;2023-05-09T02:00:51;101624.47;;;15.13;93.29
73341;BME280;61578;52.002;5.468;2023-05-09T02:01:23;101628.00;;;15.13;93.24
73341;BME280;61578;52.002;5.468;2023-05-09T02:01:55;101629.72;;;15.14;93.05
73341;BME280;61578;52.002;5.468;2023-05-09T02:02:30;101626.19;;;15.14;93.29
73341;BME280;61578;52.002;5.468;2023-05-09T02:03:03;101631.66;;;15.12;92.98
73341;BME280;61578;52.002;5.468;2023-05-09T02:03:36;101634.31;;;15.12;93.32
73341;BME280;61578;52.002;5.468;2023-05-09T02:04:14;101618.59;;;15.07;93.08
73341;BME280;61578;52.002;5.468;2023-05-09T02:04:48;101631.75;;;15.10;93.02
73341;BME280;61578;52.002;5.468;2023-05-09T02:05:26;101633.56;;;15.10;93.64
73341;BME280;61578;52.002;5.468;2023-05-09T02:06:00;101631.84;;;15.09;93.34
73341;BME280;61578;52.002;5.468;2023-05-09T02:06:35;101637.84;;;15.13;93.48
73341;BME280;61578;52.002;5.468;2023-05-09T02:07:11;101626.50;;;15.09;93.15
73341;BME280;61578;52.002;5.468;2023-05-09T02:07:45;101622.00;;;15.09;93.41
73341;BME280;61578;52.002;5.468;2023-05-09T02:08:18;101631.66;;;15.12;93.78
73341;BME280;61578;52.002;5.468;2023-05-09T02:08:52;101627.25;;;15.11;93.21
73341;BME280;61578;52.002;5.468;2023-05-09T02:09:23;101626.31;;;15.12;93.77
73341;BME280;61578;52.002;5.468;2023-05-09T02:09:57;101615.06;;;15.07;93.70
73341;BME280;61578;52.002;5.468;2023-05-09T02:10:30;101626.94;;;15.16;93.98
73341;BME280;61578;52.002;5.468;2023-05-09T02:11:02;101614.63;;;15.13;93.48
73341;BME280;61578;52.002;5.468;2023-05-09T02:11:33;101605.00;;;15.10;93.36
73341;BME280;61578;52.002;5.468;2023-05-09T02:12:03;101618.94;;;15.16;93.71
73341;BME280;61578;52.002;5.468;2023-05-09T02:12:34;101613.44;;;15.17;93.26
73341;BME280;61578;52.002;5.468;2023-05-09T02:13:05;101609.09;;;15.16;93.81
73341;BME280;61578;52.002;5.468;2023-05-09T02:13:36;101603.19;;;15.11;93.61
73341;BME280;61578;52.002;5.468;2023-05-09T02:14:10;101608.22;;;15.16;93.21
73341;BME280;61578;52.002;5.468;2023-05-09T02:14:41;101616.13;;;15.17;93.45
73341;BME280;61578;52.002;5.468;2023-05-09T02:15:11;101604.03;;;15.12;93.54
73341;BME280;61578;52.002;5.468;2023-05-09T02:15:42;101610.91;;;15.16;93.39
73341;BME280;61578;52.002;5.468;2023-05-09T02:16:14;101615.25;;;15.17;93.35
73341;BME280;61578;52.002;5.468;2023-05-09T02:16:45;101613.44;;;15.17;93.65
73341;BME280;61578;52.002;5.468;2023-05-09T02:17:16;101614.28;;;15.18;93.57
73341;BME280;61578;52.002;5.468;2023-05-09T02:17:47;101612.47;;;15.18;93.47
73341;BME280;61578;52.002;5.468;2023-05-09T02:18:17;101614.28;;;15.18;93.69
73341;BME280;61578;52.002;5.468;2023-05-09T02:18:48;101612.59;;;15.17;93.83
73341;BME280;61578;52.002;5.468;2023-05-09T02:19:19;101621.47;;;15.17;93.71
73341;BME280;61578;52.002;5.468;2023-05-09T02:19:49;101624.13;;;15.17;93.37
73341;BME280;61578;52.002;5.468;2023-05-09T02:20:20;101615.25;;;15.17;93.40
73341;BME280;61578;52.002;5.468;2023-05-09T02:20:54;101603.09;;;15.13;93.53
73341;BME280;61578;52.002;5.468;2023-05-09T02:21:27;101612.47;;;15.18;93.65
73341;BME280;61578;52.002;5.468;2023-05-09T02:21:58;101602.13;;;15.14;93.40
73341;BME280;61578;52.002;5.468;2023-05-09T02:22:32;101608.94;;;15.18;93.32
73341;BME280;61578;52.002;5.468;2023-05-09T02:23:03;101610.66;;;15.19;93.72
73341;BME280;61578;52.002;5.468;2023-05-09T02:23:34;101610.56;;;15.20;93.06
73341;BME280;61578;52.002;5.468;2023-05-09T02:24:05;101611.53;;;15.19;93.37
73341;BME280;61578;52.002;5.468;2023-05-09T02:24:36;101615.16;;;15.18;92.93
73341;BME280;61578;52.002;5.468;2023-05-09T02:25:11;101605.41;;;15.17;93.30
73341;BME280;61578;52.002;5.468;2023-05-09T02:25:45;101604.56;;;15.17;93.37
73341;BME280;61578;52.002;5.468;2023-05-09T02:26:17;101606.41;;;15.16;93.60
73341;BME280;61578;52.002;5.468;2023-05-09T02:26:48;101608.94;;;15.18;93.42
73341;BME280;61578;52.002;5.468;2023-05-09T02:27:20;101608.09;;;15.17;93.50
73341;BME280;61578;52.002;5.468;2023-05-09T02:27:54;101604.44;;;15.18;93.51
73341;BME280;61578;52.002;5.468;2023-05-09T02:28:29;101603.50;;;15.19;93.04
73341;BME280;61578;52.002;5.468;2023-05-09T02:29:02;101602.63;;;15.19;93.04
73341;BME280;61578;52.002;5.468;2023-05-09T02:29:41;101604.56;;;15.17;92.87
73341;BME280;61578;52.002;5.468;2023-05-09T02:30:20;101599.22;;;15.17;93.35
73341;BME280;61578;52.002;5.468;2023-05-09T02:30:57;101607.38;;;15.15;93.48
73341;BME280;61578;52.002;5.468;2023-05-09T02:31:33;101603.84;;;15.15;93.19
73341;BME280;61578;52.002;5.468;2023-05-09T02:32:11;101606.41;;;15.16;93.49
73341;BME280;61578;52.002;5.468;2023-05-09T02:32:48;101585.53;;;15.08;92.99
73341;BME280;61578;52.002;5.468;2023-05-09T02:33:24;101605.75;;;15.13;93.36
73341;BME280;61578;52.002;5.468;2023-05-09T02:33:56;101605.75;;;15.13;93.29
73341;BME280;61578;52.002;5.468;2023-05-09T02:34:28;101597.84;;;15.11;93.10
73341;BME280;61578;52.002;5.468;2023-05-09T02:35:00;101595.16;;;15.11;93.17
73341;BME280;61578;52.002;5.468;2023-05-09T02:35:34;101604.03;;;15.12;93.24
73341;BME280;61578;52.002;5.468;2023-05-09T02:36:06;101604.03;;;15.12;93.47
73341;BME280;61578;52.002;5.468;2023-05-09T02:36:39;101592.94;;;15.05;92.98
73341;BME280;61578;52.002;5.468;2023-05-09T02:37:12;101601.38;;;15.12;93.00
73341;BME280;61578;52.002;5.468;2023-05-09T02:37:46;101594.31;;;15.10;93.08
73341;BME280;61578;52.002;5.468;2023-05-09T02:38:18;101602.22;;;15.12;93.08
73341;BME280;61578;52.002;5.468;2023-05-09T02:38:51;101603.19;;;15.11;93.54
73341;BME280;61578;52.002;5.468;2023-05-09T02:39:22;101605.00;;;15.10;93.54
73341;BME280;61578;52.002;5.468;2023-05-09T02:39:54;101596.97;;;15.10;93.31
73341;BME280;61578;52.002;5.468;2023-05-09T02:40:29;101599.66;;;15.10;93.18
73341;BME280;61578;52.002;5.468;2023-05-09T02:41:00;101598.78;;;15.10;92.90
73341;BME280;61578;52.002;5.468;2023-05-09T02:41:31;101606.94;;;15.08;93.26
73341;BME280;61578;52.002;5.468;2023-05-09T02:42:12;101598.91;;;15.08;93.31
73341;BME280;61578;52.002;5.468;2023-05-09T02:42:44;101599.88;;;15.07;93.53
73341;BME280;61578;52.002;5.468;2023-05-09T02:43:15;101589.59;;;15.01;93.43
73341;BME280;61578;52.002;5.468;2023-05-09T02:43:46;101606.31;;;15.05;93.47
73341;BME280;61578;52.002;5.468;2023-05-09T02:44:16;101605.22;;;15.07;93.87
73341;BME280;61578;52.002;5.468;2023-05-09T02:44:53;101604.34;;;15.07;93.91
73341;BME280;61578;52.002;5.468;2023-05-09T02:45:25;101601.56;;;15.08;93.71
73341;BME280;61578;52.002;5.468;2023-05-09T02:45:58;101596.88;;;14.99;93.78
73341;BME280;61578;52.002;5.468;2023-05-09T02:46:29;101607.88;;;15.07;93.74
73341;BME280;61578;52.002;5.468;2023-05-09T02:47:04;101601.81;;;15.05;93.09
73341;BME280;61578;52.002;5.468;2023-05-09T02:47:37;101603.75;;;15.03;93.28
73341;BME280;61578;52.002;5.468;2023-05-09T02:48:11;101609.94;;;15.04;93.38
73341;BME280;61578;52.002;5.468;2023-05-09T02:48:41;101604.69;;;15.02;93.33
73341;BME280;61578;52.002;5.468;2023-05-09T02:49:12;101606.50;;;15.02;93.30
73341;BME280;61578;52.002;5.468;2023-05-09T02:49:43;101602.03;;;15.02;93.13
73341;BME280;61578;52.002;5.468;2023-05-09T02:50:14;101611.75;;;15.03;93.54
73341;BME280;61578;52.002;5.468;2023-05-09T02:50:45;101611.75;;;15.03;93.81
73341;BME280;61578;52.002;5.468;2023-05-09T02:51:16;101591.75;;;14.96;93.22
73341;BME280;61578;52.002;5.468;2023-05-09T02:51:47;101602.97;;;15.01;93.71
73341;BME280;61578;52.002;5.468;2023-05-09T02:52:18;101596.97;;;14.98;93.78
73341;BME280;61578;52.002;5.468;2023-05-09T02:52:48;101605.44;;;15.04;93.52
73341;BME280;61578;52.002;5.468;2023-05-09T02:53:19;101599.66;;;14.98;93.52
73341;BME280;61578;52.002;5.468;2023-05-09T02:53:50;101608.13;;;15.04;93.90
73341;BME280;61578;52.002;5.468;2023-05-09T02:54:20;101599.56;;;14.99;93.90
73341;BME280;61578;52.002;5.468;2023-05-09T02:54:51;101601.91;;;15.04;93.48
73341;BME280;61578;52.002;5.468;2023-05-09T02:55:22;101609.09;;;15.03;93.80
73341;BME280;61578;52.002;5.468;2023-05-09T02:55:52;101597.75;;;15.00;93.79
73341;BME280;61578;52.002;5.468;2023-05-09T02:56:23;101596.47;;;15.05;93.52
73341;BME280;61578;52.002;5.468;2023-05-09T02:56:54;101594.66;;;15.06;93.68
73341;BME280;61578;52.002;5.468;2023-05-09T02:57:24;101604.50;;;15.05;93.94
73341;BME280;61578;52.002;5.468;2023-05-09T02:57:55;101603.50;;;15.06;93.78
73341;BME280;61578;52.002;5.468;2023-05-09T02:58:26;101569.94;;;14.90;93.87
73341;BME280;61578;52.002;5.468;2023-05-09T02:58:57;101603.50;;;15.06;94.64
73341;BME280;61578;52.002;5.468;2023-05-09T02:59:28;101600.09;;;15.04;93.81
73341;BME280;61578;52.002;5.468;2023-05-09T02:59:58;101604.34;;;15.07;93.67
73341;BME280;61578;52.002;5.468;2023-05-09T03:00:29;101597.31;;;15.06;93.80
73341;BME280;61578;52.002;5.468;2023-05-09T03:01:00;101594.50;;;15.07;93.73
73341;BME280;61578;52.002;5.468;2023-05-09T03:01:30;101598.16;;;15.06;94.31
73341;BME280;61578;52.002;5.468;2023-05-09T03:02:01;101598.91;;;15.08;93.98
73341;BME280;61578;52.002;5.468;2023-05-09T03:02:32;101598.78;;;15.10;94.06
73341;BME280;61578;52.002;5.468;2023-05-09T03:03:03;101597.09;;;15.09;93.91
73341;BME280;61578;52.002;5.468;2023-05-09T03:03:33;101595.25;;;15.09;93.58
73341;BME280;61578;52.002;5.468;2023-05-09T03:04:04;101590.88;;;15.08;93.76
73341;BME280;61578;52.002;5.468;2023-05-09T03:04:38;101589.91;;;15.09;93.79
73341;BME280;61578;52.002;5.468;2023-05-09T03:05:11;101584.78;;;15.06;93.75
73341;BME280;61578;52.002;5.468;2023-05-09T03:05:42;101584.66;;;15.08;93.72
73341;BME280;61578;52.002;5.468;2023-05-09T03:06:13;101589.81;;;15.11;94.04
73341;BME280;61578;52.002;5.468;2023-05-09T03:06:44;101587.25;;;15.09;93.69
73341;BME280;61578;52.002;5.468;2023-05-09T03:07:14;101589.72;;;15.13;93.68
73341;BME280;61578;52.002;5.468;2023-05-09T03:07:45;101585.44;;;15.10;93.41
73341;BME280;61578;52.002;5.468;2023-05-09T03:08:17;101592.50;;;15.11;93.52